createdAt,value
2017-11-13T13:50:30.415Z,1007.1
2017-11-13T13:51:33.051Z,1007.2
2017-11-13T13:52:35.805Z,1007.2
2017-11-13T13:53:40.589Z,1007.2
2017-11-13T13:54:43.351Z,1007.3
2017-11-13T13:55:47.914Z,1007.2
2017-11-13T13:56:52.164Z,1007.2
2017-11-13T13:57:54.702Z,1007.2
2017-11-13T13:58:57.811Z,1007.2
2017-11-13T14:00:00.388Z,1007.3
2017-11-13T14:01:03.835Z,1007.2
2017-11-13T14:02:06.356Z,1007.2
2017-11-13T14:03:09.221Z,1007.2
2017-11-13T14:04:11.835Z,1007.3
2017-11-13T14:05:15.619Z,1007.3
2017-11-13T14:06:20.902Z,1007.3
2017-11-13T14:07:23.594Z,1007.3
2017-11-13T14:08:27.314Z,1007.2
2017-11-13T14:09:30.279Z,1007.3
2017-11-13T14:10:33.184Z,1007.3
2017-11-13T14:11:36.692Z,1007.4
2017-11-13T14:12:39.219Z,1007.4
2017-11-13T14:13:41.811Z,1007.4
2017-11-13T14:14:44.469Z,1007.5
2017-11-13T14:15:47.423Z,1007.4
2017-11-13T14:16:49.873Z,1007.5
2017-11-13T14:17:52.301Z,1007.5
2017-11-13T14:18:54.756Z,1007.4
2017-11-13T14:19:57.218Z,1007.4
2017-11-13T14:20:59.677Z,1007.4
2017-11-13T14:22:02.110Z,1007.4
2017-11-13T14:23:04.566Z,1007.4
2017-11-13T14:24:07.035Z,1007.4
2017-11-13T14:25:09.463Z,1007.5
2017-11-13T14:26:11.914Z,1007.4
2017-11-13T14:27:14.377Z,1007.5
2017-11-13T14:28:16.814Z,1007.5
2017-11-13T14:29:19.243Z,1007.5
2017-11-13T14:30:21.674Z,1007.5
2017-11-13T14:31:24.113Z,1007.4
2017-11-13T14:32:26.582Z,1007.5
2017-11-13T14:33:29.380Z,1007.5
2017-11-13T14:34:32.164Z,1007.5
2017-11-13T14:35:34.606Z,1007.5
2017-11-13T14:36:37.033Z,1007.5
2017-11-13T14:37:39.474Z,1007.6
2017-11-13T14:38:41.895Z,1007.6
2017-11-13T14:39:44.341Z,1007.6
2017-11-13T14:40:46.786Z,1007.7
2017-11-13T14:41:49.212Z,1007.6
2017-11-13T14:42:51.636Z,1007.6
2017-11-13T14:43:54.104Z,1007.7
2017-11-13T14:44:56.563Z,1007.7
2017-11-13T14:45:58.994Z,1007.7
2017-11-13T14:47:01.436Z,1007.7
2017-11-13T14:48:03.856Z,1007.7
2017-11-13T14:49:06.277Z,1007.8
2017-11-13T14:50:08.704Z,1007.8
2017-11-13T14:51:11.136Z,1007.8
2017-11-13T14:52:13.567Z,1007.8
2017-11-13T14:53:15.993Z,1007.8
2017-11-13T14:54:18.449Z,1007.7
2017-11-13T14:55:20.877Z,1007.8
2017-11-13T14:56:23.295Z,1007.8
2017-11-13T14:57:25.743Z,1007.8
2017-11-13T14:58:28.155Z,1007.8
2017-11-13T14:59:30.584Z,1007.9
2017-11-13T15:00:33.013Z,1007.9
2017-11-13T15:01:35.448Z,1008
2017-11-13T15:02:37.882Z,1008
2017-11-13T15:03:40.677Z,1008
2017-11-13T15:04:43.104Z,1008
2017-11-13T15:05:45.534Z,1008
2017-11-13T15:06:47.972Z,1008
2017-11-13T15:07:50.384Z,1008
2017-11-13T15:08:52.823Z,1008.1
2017-11-13T15:09:55.253Z,1008.1
2017-11-13T15:10:57.677Z,1008.1
2017-11-13T15:12:00.101Z,1008.1
2017-11-13T15:13:02.541Z,1008.1
2017-11-13T15:14:04.957Z,1008.1
2017-11-13T15:15:07.389Z,1008.2
2017-11-13T15:16:09.809Z,1008.1
2017-11-13T15:17:12.244Z,1008.1
2017-11-13T15:18:14.672Z,1008.2
2017-11-13T15:19:17.114Z,1008.2
2017-11-13T15:20:19.543Z,1008.2
2017-11-13T15:21:21.977Z,1008.2
2017-11-13T15:22:24.772Z,1008.3
2017-11-13T15:23:27.203Z,1008.3
2017-11-13T15:24:29.626Z,1008.3
2017-11-13T15:25:32.092Z,1008.2
2017-11-13T15:26:34.525Z,1008.2
2017-11-13T15:27:36.965Z,1008.2
2017-11-13T15:28:39.750Z,1008.2
2017-11-13T15:29:42.158Z,1008.2
2017-11-13T15:30:44.582Z,1008.2
2017-11-13T15:31:47.027Z,1008.2
2017-11-13T15:32:49.451Z,1008.3
2017-11-13T15:33:51.885Z,1008.3
2017-11-13T15:34:54.342Z,1008.3
2017-11-13T15:35:56.761Z,1008.2
2017-11-13T15:36:59.549Z,1008.2
2017-11-13T15:38:01.974Z,1008.2
2017-11-13T15:39:04.400Z,1008.2
2017-11-13T15:40:06.832Z,1008.2
2017-11-13T15:41:09.319Z,1008.3
2017-11-13T15:42:11.733Z,1008.2
2017-11-13T15:43:14.165Z,1008.2
2017-11-13T15:44:16.606Z,1008.3
2017-11-13T15:45:19.028Z,1008.2
2017-11-13T15:46:21.465Z,1008.2
2017-11-13T15:47:23.915Z,1008.2
2017-11-13T15:48:26.359Z,1008.3
2017-11-13T15:49:28.779Z,1008.2
2017-11-13T15:50:31.222Z,1008.3
2017-11-13T15:51:33.647Z,1008.3
2017-11-13T15:52:36.076Z,1008.3
2017-11-13T15:53:38.500Z,1008.4
2017-11-13T15:54:40.939Z,1008.4
2017-11-13T15:55:43.379Z,1008.5
2017-11-13T15:56:45.827Z,1008.4
2017-11-13T15:57:48.240Z,1008.5
2017-11-13T15:58:50.670Z,1008.5
2017-11-13T15:59:53.140Z,1008.5
2017-11-13T16:00:55.551Z,1008.6
2017-11-13T16:01:57.982Z,1008.6
2017-11-13T16:03:00.413Z,1008.7
2017-11-13T16:04:02.856Z,1008.7
2017-11-13T16:05:06.316Z,1008.7
2017-11-13T16:06:10.978Z,1008.7
2017-11-13T16:07:16.849Z,1008.7
2017-11-13T16:08:22.499Z,1008.8
2017-11-13T16:09:33.191Z,1008.7
2017-11-13T16:10:38.994Z,1008.8
2017-11-13T16:11:41.971Z,1008.8
2017-11-13T16:12:45.733Z,1008.9
2017-11-13T16:13:50.945Z,1008.9
2017-11-13T16:14:58.495Z,1008.9
2017-11-13T16:16:06.875Z,1008.9
2017-11-13T16:17:11.603Z,1009
2017-11-13T16:18:19.074Z,1009
2017-11-13T16:19:25.694Z,1009
2017-11-13T16:20:33.846Z,1009.1
2017-11-13T16:21:41.965Z,1009.1
2017-11-13T16:22:46.474Z,1009.1
2017-11-13T16:23:56.524Z,1009.1
2017-11-13T16:25:03.365Z,1009.1
2017-11-13T16:26:05.789Z,1009.1
2017-11-13T16:27:08.222Z,1009.2
2017-11-13T16:28:10.650Z,1009.3
2017-11-13T16:29:13.431Z,1009.2
2017-11-13T16:30:16.232Z,1009.2
2017-11-13T16:31:18.660Z,1009.2
2017-11-13T16:32:21.104Z,1009.2
2017-11-13T16:33:23.523Z,1009.2
2017-11-13T16:34:25.947Z,1009.3
2017-11-13T16:35:28.486Z,1009.3
2017-11-13T16:36:30.913Z,1009.3
2017-11-13T16:37:33.343Z,1009.3
2017-11-13T16:38:35.772Z,1009.3
2017-11-13T16:39:38.199Z,1009.4
2017-11-13T16:40:40.704Z,1009.3
2017-11-13T16:41:43.170Z,1009.4
2017-11-13T16:42:45.595Z,1009.4
2017-11-13T16:43:48.031Z,1009.5
2017-11-13T16:44:50.570Z,1009.5
2017-11-13T16:45:52.996Z,1009.5
2017-11-13T16:46:55.443Z,1009.5
2017-11-13T16:47:57.859Z,1009.5
2017-11-13T16:49:00.646Z,1009.5
2017-11-13T16:50:03.070Z,1009.6
2017-11-13T16:51:05.499Z,1009.6
2017-11-13T16:52:07.928Z,1009.6
2017-11-13T16:53:10.343Z,1009.7
2017-11-13T16:54:12.776Z,1009.7
2017-11-13T16:55:15.237Z,1009.7
2017-11-13T16:56:17.685Z,1009.7
2017-11-13T16:57:20.121Z,1009.8
2017-11-13T16:58:22.552Z,1009.8
2017-11-13T16:59:24.973Z,1009.8
2017-11-13T17:00:27.398Z,1009.8
2017-11-13T17:01:29.819Z,1009.8
2017-11-13T17:02:32.251Z,1009.8
2017-11-13T17:03:35.030Z,1009.9
2017-11-13T17:04:37.822Z,1009.9
2017-11-13T17:05:40.256Z,1009.9
2017-11-13T17:06:42.689Z,1009.9
2017-11-13T17:07:45.121Z,1009.9
2017-11-13T17:08:47.552Z,1009.9
2017-11-13T17:09:49.976Z,1010
2017-11-13T17:10:52.398Z,1010
2017-11-13T17:11:54.831Z,1010
2017-11-13T17:12:57.266Z,1010
2017-11-13T17:13:59.687Z,1010
2017-11-13T17:15:02.126Z,1010.1
2017-11-13T17:16:04.541Z,1010
2017-11-13T17:17:06.963Z,1010.1
2017-11-13T17:18:09.387Z,1010.1
2017-11-13T17:19:11.805Z,1010.1
2017-11-13T17:20:14.225Z,1010.1
2017-11-13T17:21:16.658Z,1010.2
2017-11-13T17:22:19.093Z,1010.2
2017-11-13T17:23:21.533Z,1010.2
2017-11-13T17:24:23.951Z,1010.3
2017-11-13T17:25:26.376Z,1010.2
2017-11-13T17:26:29.180Z,1010.3
2017-11-13T17:27:31.613Z,1010.3
2017-11-13T17:28:34.038Z,1010.3
2017-11-13T17:29:36.813Z,1010.3
2017-11-13T17:30:39.230Z,1010.3
2017-11-13T17:31:42.038Z,1010.3
2017-11-13T17:32:44.463Z,1010.4
2017-11-13T17:33:46.892Z,1010.4
2017-11-13T17:34:49.335Z,1010.4
2017-11-13T17:35:51.815Z,1010.5
2017-11-13T17:36:54.466Z,1010.5
2017-11-13T17:37:56.921Z,1010.5
2017-11-13T17:38:59.354Z,1010.5
2017-11-13T17:40:02.532Z,1010.5
2017-11-13T17:41:04.961Z,1010.5
2017-11-13T17:42:07.766Z,1010.5
2017-11-13T17:43:10.209Z,1010.5
2017-11-13T17:44:12.638Z,1010.5
2017-11-13T17:45:15.068Z,1010.5
2017-11-13T17:46:17.521Z,1010.5
2017-11-13T17:47:19.938Z,1010.6
2017-11-13T17:48:22.361Z,1010.6
2017-11-13T17:49:24.790Z,1010.6
2017-11-13T17:50:27.212Z,1010.6
2017-11-13T17:51:29.671Z,1010.7
2017-11-13T17:52:32.097Z,1010.6
2017-11-13T17:53:34.523Z,1010.7
2017-11-13T17:54:36.979Z,1010.7
2017-11-13T17:55:39.414Z,1010.8
2017-11-13T17:56:41.840Z,1010.7
2017-11-13T17:57:44.296Z,1010.7
2017-11-13T17:58:47.101Z,1010.7
2017-11-13T17:59:49.534Z,1010.8
2017-11-13T18:00:51.962Z,1010.7
2017-11-13T18:01:54.405Z,1010.8
2017-11-13T18:02:56.887Z,1010.7
2017-11-13T18:03:59.357Z,1010.8
2017-11-13T18:05:02.950Z,1010.8
2017-11-13T18:06:07.293Z,1010.7
2017-11-13T18:07:13.544Z,1010.7
2017-11-13T18:08:20.041Z,1010.7
2017-11-13T18:09:24.501Z,1010.7
2017-11-13T18:10:28.833Z,1010.7
2017-11-13T18:11:33.589Z,1010.7
2017-11-13T18:12:36.561Z,1010.7
2017-11-13T18:13:42.723Z,1010.7
2017-11-13T18:14:49.148Z,1010.7
2017-11-13T18:15:52.109Z,1010.7
2017-11-13T18:16:55.549Z,1010.7
2017-11-13T18:17:58.471Z,1010.8
2017-11-13T18:19:01.494Z,1010.8
2017-11-13T18:20:04.677Z,1010.8
2017-11-13T18:21:07.325Z,1010.7
2017-11-13T18:22:10.269Z,1010.8
2017-11-13T18:23:13.047Z,1010.7
2017-11-13T18:24:16.253Z,1010.7
2017-11-13T18:25:19.576Z,1010.7
2017-11-13T18:26:22.556Z,1010.7
2017-11-13T18:27:25.445Z,1010.7
2017-11-13T18:28:28.240Z,1010.8
2017-11-13T18:29:31.140Z,1010.7
2017-11-13T18:30:33.939Z,1010.8
2017-11-13T18:31:36.821Z,1010.7
2017-11-13T18:32:40.171Z,1010.7
2017-11-13T18:33:44.005Z,1010.8
2017-11-13T18:34:48.725Z,1010.8
2017-11-13T18:35:52.186Z,1010.7
2017-11-13T18:36:56.058Z,1010.8
2017-11-13T18:38:00.929Z,1010.8
2017-11-13T18:39:06.138Z,1010.8
2017-11-13T18:40:10.139Z,1010.8
2017-11-13T18:41:14.718Z,1010.8
2017-11-13T18:42:18.505Z,1010.8
2017-11-13T18:43:22.649Z,1010.8
2017-11-13T18:44:27.229Z,1010.8
2017-11-13T18:45:30.500Z,1010.8
2017-11-13T18:46:34.504Z,1010.9
2017-11-13T18:47:38.461Z,1010.9
2017-11-13T18:48:42.428Z,1010.9
2017-11-13T18:49:47.365Z,1010.9
2017-11-13T18:50:51.614Z,1010.8
2017-11-13T18:51:57.403Z,1010.9
2017-11-13T18:53:01.449Z,1010.9
2017-11-13T18:54:06.597Z,1010.9
2017-11-13T18:55:10.858Z,1010.9
2017-11-13T18:56:14.784Z,1010.9
2017-11-13T18:57:19.235Z,1010.8
2017-11-13T18:58:23.221Z,1010.9
2017-11-13T18:59:27.739Z,1010.8
2017-11-13T19:00:31.862Z,1010.9
2017-11-13T19:01:36.064Z,1010.9
2017-11-13T19:02:39.910Z,1010.9
2017-11-13T19:03:43.376Z,1010.9
2017-11-13T19:04:48.110Z,1010.9
2017-11-13T19:05:52.529Z,1010.9
2017-11-13T19:06:57.108Z,1011
2017-11-13T19:08:01.777Z,1011
2017-11-13T19:09:05.797Z,1011
2017-11-13T19:10:09.103Z,1011
2017-11-13T19:11:12.493Z,1011
2017-11-13T19:12:16.430Z,1011
2017-11-13T19:13:21.216Z,1010.9
2017-11-13T19:14:25.614Z,1010.9
2017-11-13T19:15:29.709Z,1011
2017-11-13T19:16:34.461Z,1011
2017-11-13T19:17:38.584Z,1011
2017-11-13T19:18:43.380Z,1011
2017-11-13T19:19:47.389Z,1011
2017-11-13T19:20:52.496Z,1011
2017-11-13T19:21:58.445Z,1011
2017-11-13T19:23:02.868Z,1011.1
2017-11-13T19:24:07.481Z,1011
2017-11-13T19:25:12.539Z,1011
2017-11-13T19:26:16.768Z,1011.1
2017-11-13T19:27:20.996Z,1011
2017-11-13T19:28:26.391Z,1011.1
2017-11-13T19:29:30.769Z,1011.1
2017-11-13T19:30:36.245Z,1011
2017-11-13T19:31:41.451Z,1011
2017-11-13T19:32:45.945Z,1011
2017-11-13T19:33:50.328Z,1011
2017-11-13T19:34:54.593Z,1011
2017-11-13T19:35:59.172Z,1011
2017-11-13T19:37:03.624Z,1011
2017-11-13T19:38:07.695Z,1011
2017-11-13T19:39:12.169Z,1011.1
2017-11-13T19:40:16.807Z,1011.1
2017-11-13T19:41:21.109Z,1011.1
2017-11-13T19:42:25.253Z,1011.1
2017-11-13T19:43:30.314Z,1011.1
2017-11-13T19:44:33.762Z,1011.1
2017-11-13T19:45:37.911Z,1011.1
2017-11-13T19:46:41.927Z,1011.1
2017-11-13T19:47:46.311Z,1011.2
2017-11-13T19:48:50.619Z,1011.2
2017-11-13T19:49:55.287Z,1011.2
2017-11-13T19:50:59.253Z,1011.3
2017-11-13T19:52:03.086Z,1011.3
2017-11-13T19:53:07.329Z,1011.3
2017-11-13T19:54:11.561Z,1011.3
2017-11-13T19:55:15.731Z,1011.3
2017-11-13T19:56:20.166Z,1011.3
2017-11-13T19:57:24.051Z,1011.3
2017-11-13T19:58:27.909Z,1011.3
2017-11-13T19:59:32.156Z,1011.3
2017-11-13T20:00:36.605Z,1011.4
2017-11-13T20:01:41.040Z,1011.4
2017-11-13T20:02:45.998Z,1011.3
2017-11-13T20:03:50.368Z,1011.3
2017-11-13T20:04:54.035Z,1011.3
2017-11-13T20:05:56.453Z,1011.4
2017-11-13T20:06:58.882Z,1011.5
2017-11-13T20:08:01.299Z,1011.5
2017-11-13T20:09:03.723Z,1011.5
2017-11-13T20:10:06.149Z,1011.5
2017-11-13T20:11:08.577Z,1011.5
2017-11-13T20:12:10.995Z,1011.5
2017-11-13T20:13:13.427Z,1011.4
2017-11-13T20:14:15.851Z,1011.4
2017-11-13T20:15:18.277Z,1011.4
2017-11-13T20:16:20.700Z,1011.4
2017-11-13T20:17:23.121Z,1011.5
2017-11-13T20:18:25.548Z,1011.5
2017-11-13T20:19:27.963Z,1011.5
2017-11-13T20:20:30.399Z,1011.5
2017-11-13T20:21:32.817Z,1011.6
2017-11-13T20:22:35.243Z,1011.5
2017-11-13T20:23:38.032Z,1011.5
2017-11-13T20:24:40.450Z,1011.5
2017-11-13T20:25:43.229Z,1011.5
2017-11-13T20:26:45.665Z,1011.5
2017-11-13T20:27:48.072Z,1011.5
2017-11-13T20:28:50.509Z,1011.5
2017-11-13T20:29:53.301Z,1011.5
2017-11-13T20:30:56.089Z,1011.5
2017-11-13T20:31:58.522Z,1011.5
2017-11-13T20:33:00.941Z,1011.5
2017-11-13T20:34:03.365Z,1011.6
2017-11-13T20:35:05.797Z,1011.6
2017-11-13T20:36:08.215Z,1011.6
2017-11-13T20:37:10.996Z,1011.6
2017-11-13T20:38:13.444Z,1011.7
2017-11-13T20:39:15.869Z,1011.6
2017-11-13T20:40:18.305Z,1011.7
2017-11-13T20:41:20.742Z,1011.6
2017-11-13T20:42:23.167Z,1011.7
2017-11-13T20:43:25.594Z,1011.7
2017-11-13T20:44:28.248Z,1011.7
2017-11-13T20:45:30.663Z,1011.7
2017-11-13T20:46:33.086Z,1011.7
2017-11-13T20:47:35.511Z,1011.7
2017-11-13T20:48:37.934Z,1011.7
2017-11-13T20:49:40.353Z,1011.7
2017-11-13T20:50:42.788Z,1011.6
2017-11-13T20:51:45.565Z,1011.7
2017-11-13T20:52:47.992Z,1011.7
2017-11-13T20:53:50.419Z,1011.7
2017-11-13T20:54:52.852Z,1011.7
2017-11-13T20:55:55.651Z,1011.7
2017-11-13T20:56:58.423Z,1011.7
2017-11-13T20:58:00.851Z,1011.8
2017-11-13T20:59:03.273Z,1011.8
2017-11-13T21:00:05.704Z,1011.8
2017-11-13T21:01:08.134Z,1011.8
2017-11-13T21:02:10.554Z,1011.8
2017-11-13T21:03:12.981Z,1011.8
2017-11-13T21:04:15.399Z,1011.8
2017-11-13T21:05:17.830Z,1011.8
2017-11-13T21:06:20.246Z,1011.8
2017-11-13T21:07:22.681Z,1011.9
2017-11-13T21:08:25.103Z,1011.9
2017-11-13T21:09:28.295Z,1011.9
2017-11-13T21:10:30.727Z,1011.9
2017-11-13T21:11:33.130Z,1011.9
2017-11-13T21:12:35.561Z,1011.9
2017-11-13T21:13:37.978Z,1012
2017-11-13T21:14:40.758Z,1012
2017-11-13T21:15:43.169Z,1011.9
2017-11-13T21:16:45.591Z,1011.9
2017-11-13T21:17:48.009Z,1012
2017-11-13T21:18:50.449Z,1011.9
2017-11-13T21:19:53.246Z,1012
2017-11-13T21:20:55.670Z,1012
2017-11-13T21:21:58.458Z,1012
2017-11-13T21:23:00.880Z,1012
2017-11-13T21:24:03.294Z,1012
2017-11-13T21:25:05.722Z,1012
2017-11-13T21:26:08.158Z,1012.1
2017-11-13T21:27:10.701Z,1012
2017-11-13T21:28:13.131Z,1012
2017-11-13T21:29:15.548Z,1012
2017-11-13T21:30:17.976Z,1012
2017-11-13T21:31:20.427Z,1012
2017-11-13T21:32:22.853Z,1012.1
2017-11-13T21:33:25.261Z,1012.1
2017-11-13T21:34:29.261Z,1012.1
2017-11-13T21:35:31.885Z,1012.1
2017-11-13T21:36:34.358Z,1012.1
2017-11-13T21:37:37.415Z,1012.2
2017-11-13T21:38:39.834Z,1012.1
2017-11-13T21:39:42.661Z,1012.1
2017-11-13T21:40:45.083Z,1012.1
2017-11-13T21:41:47.507Z,1012.2
2017-11-13T21:42:49.922Z,1012.2
2017-11-13T21:43:52.344Z,1012.2
2017-11-13T21:44:54.756Z,1012.1
2017-11-13T21:45:57.204Z,1012.2
2017-11-13T21:46:59.654Z,1012.2
2017-11-13T21:48:02.445Z,1012.1
2017-11-13T21:49:04.890Z,1012.1
2017-11-13T21:50:07.303Z,1012.1
2017-11-13T21:51:09.730Z,1012.1
2017-11-13T21:52:12.163Z,1012.1
2017-11-13T21:53:14.581Z,1012.2
2017-11-13T21:54:17.008Z,1012.1
2017-11-13T21:55:19.428Z,1012.1
2017-11-13T21:56:21.848Z,1012.1
2017-11-13T21:57:24.276Z,1012.1
2017-11-13T21:58:27.061Z,1012.1
2017-11-13T21:59:29.471Z,1012.1
2017-11-13T22:00:32.620Z,1012.1
2017-11-13T22:01:35.049Z,1012.2
2017-11-13T22:02:37.487Z,1012.2
2017-11-13T22:03:39.933Z,1012.2
2017-11-13T22:04:42.352Z,1012.2
2017-11-13T22:05:45.396Z,1012.2
2017-11-13T22:06:47.830Z,1012.2
2017-11-13T22:07:50.245Z,1012.2
2017-11-13T22:08:52.679Z,1012.2
2017-11-13T22:09:55.095Z,1012.2
2017-11-13T22:10:57.875Z,1012.2
2017-11-13T22:12:01.026Z,1012.2
2017-11-13T22:13:03.445Z,1012.2
2017-11-13T22:14:06.231Z,1012.2
2017-11-13T22:15:08.650Z,1012.2
2017-11-13T22:16:11.090Z,1012.2
2017-11-13T22:17:13.549Z,1012.2
2017-11-13T22:18:15.959Z,1012.2
2017-11-13T22:19:18.389Z,1012.2
2017-11-13T22:20:20.813Z,1012.2
2017-11-13T22:21:23.225Z,1012.1
2017-11-13T22:22:25.649Z,1012.2
2017-11-13T22:23:28.088Z,1012.2
2017-11-13T22:24:30.501Z,1012.2
2017-11-13T22:25:33.279Z,1012.2
2017-11-13T22:26:35.709Z,1012.2
2017-11-13T22:27:38.132Z,1012.2
2017-11-13T22:28:40.938Z,1012.2
2017-11-13T22:29:43.378Z,1012.2
2017-11-13T22:30:45.781Z,1012.2
2017-11-13T22:31:48.209Z,1012.3
2017-11-13T22:32:51.009Z,1012.3
2017-11-13T22:33:53.430Z,1012.3
2017-11-13T22:34:55.881Z,1012.2
2017-11-13T22:35:58.284Z,1012.3
2017-11-13T22:37:00.697Z,1012.2
2017-11-13T22:38:03.127Z,1012.2
2017-11-13T22:39:05.547Z,1012.2
2017-11-13T22:40:07.967Z,1012.2
2017-11-13T22:41:10.395Z,1012.2
2017-11-13T22:42:12.809Z,1012.2
2017-11-13T22:43:15.226Z,1012.2
2017-11-13T22:44:17.663Z,1012.1
2017-11-13T22:45:20.075Z,1012.1
2017-11-13T22:46:22.501Z,1012.2
2017-11-13T22:47:24.927Z,1012.2
2017-11-13T22:48:27.353Z,1012.2
2017-11-13T22:49:29.762Z,1012.2
2017-11-13T22:50:32.177Z,1012.2
2017-11-13T22:51:34.597Z,1012.2
2017-11-13T22:52:37.020Z,1012.2
2017-11-13T22:53:39.808Z,1012.2
2017-11-13T22:54:42.242Z,1012.3
2017-11-13T22:55:44.674Z,1012.2
2017-11-13T22:56:47.098Z,1012.2
2017-11-13T22:57:49.533Z,1012.2
2017-11-13T22:58:51.957Z,1012.3
2017-11-13T22:59:54.383Z,1012.2
2017-11-13T23:00:56.804Z,1012.3
2017-11-13T23:01:59.218Z,1012.2
2017-11-13T23:03:01.655Z,1012.2
2017-11-13T23:04:04.049Z,1012.3
2017-11-13T23:05:06.462Z,1012.3
2017-11-13T23:06:08.884Z,1012.3
2017-11-13T23:07:11.306Z,1012.3
2017-11-13T23:08:13.716Z,1012.2
2017-11-13T23:09:16.146Z,1012.3
2017-11-13T23:10:18.571Z,1012.3
2017-11-13T23:11:20.992Z,1012.3
2017-11-13T23:12:23.417Z,1012.3
2017-11-13T23:13:25.838Z,1012.3
2017-11-13T23:14:28.256Z,1012.3
2017-11-13T23:15:30.702Z,1012.3
2017-11-13T23:16:33.125Z,1012.3
2017-11-13T23:17:35.537Z,1012.3
2017-11-13T23:18:38.332Z,1012.3
2017-11-13T23:19:40.756Z,1012.3
2017-11-13T23:20:43.186Z,1012.3
2017-11-13T23:21:45.592Z,1012.4
2017-11-13T23:22:48.399Z,1012.3
2017-11-13T23:23:50.815Z,1012.3
2017-11-13T23:24:53.238Z,1012.3
2017-11-13T23:25:55.659Z,1012.3
2017-11-13T23:26:58.065Z,1012.4
2017-11-13T23:28:00.867Z,1012.3
2017-11-13T23:29:03.290Z,1012.4
2017-11-13T23:30:05.703Z,1012.4
2017-11-13T23:31:08.122Z,1012.3
2017-11-13T23:32:10.932Z,1012.4
2017-11-13T23:33:13.344Z,1012.4
2017-11-13T23:34:15.771Z,1012.3
2017-11-13T23:35:18.921Z,1012.4
2017-11-13T23:36:21.340Z,1012.4
2017-11-13T23:37:23.840Z,1012.4
2017-11-13T23:38:26.265Z,1012.4
2017-11-13T23:39:28.686Z,1012.4
2017-11-13T23:40:31.121Z,1012.5
2017-11-13T23:41:33.528Z,1012.5
2017-11-13T23:42:35.974Z,1012.5
2017-11-13T23:43:39.112Z,1012.5
2017-11-13T23:44:41.535Z,1012.5
2017-11-13T23:45:43.954Z,1012.5
2017-11-13T23:46:46.372Z,1012.5
2017-11-13T23:47:48.800Z,1012.5
2017-11-13T23:48:51.567Z,1012.5
2017-11-13T23:49:53.980Z,1012.6
2017-11-13T23:50:56.411Z,1012.5
2017-11-13T23:51:58.827Z,1012.5
2017-11-13T23:53:01.969Z,1012.6
2017-11-13T23:54:04.388Z,1012.5
2017-11-13T23:55:06.812Z,1012.5
2017-11-13T23:56:09.226Z,1012.5
2017-11-13T23:57:11.660Z,1012.6
2017-11-13T23:58:14.061Z,1012.5
2017-11-13T23:59:16.488Z,1012.5
